createdAt,value
2023-01-23T00:00:08.261Z,17.70
2023-01-23T00:03:13.408Z,17.65
2023-01-23T00:06:16.606Z,20.30
2023-01-23T00:09:18.291Z,17.40
2023-01-23T00:12:19.847Z,17.75
2023-01-23T00:15:21.367Z,15.20
2023-01-23T00:18:22.844Z,16.02
2023-01-23T00:21:26.877Z,13.73
2023-01-23T00:27:30.161Z,20.70
2023-01-23T00:30:33.557Z,20.23
2023-01-23T00:33:35.491Z,19.98
2023-01-23T00:36:39.790Z,21.42
2023-01-23T00:39:41.322Z,19.38
2023-01-23T00:42:45.648Z,19.63
2023-01-23T00:45:47.265Z,18.45
2023-01-23T00:48:49.426Z,19.83
2023-01-23T00:51:51.103Z,19.48
2023-01-23T00:54:52.620Z,17.98
2023-01-23T00:57:54.209Z,17.42
2023-01-23T01:00:55.868Z,18.95
2023-01-23T01:03:58.135Z,18.35
2023-01-23T01:06:59.689Z,19.85
2023-01-23T01:10:01.207Z,17.38
2023-01-23T01:13:03.334Z,18.75
2023-01-23T01:16:05.953Z,18.33
2023-01-23T01:19:10.184Z,19.50
2023-01-23T01:22:11.682Z,18.60
2023-01-23T01:25:13.247Z,20.17
2023-01-23T01:28:14.936Z,15.27
2023-01-23T01:31:17.127Z,14.45
2023-01-23T01:34:18.870Z,15.60
2023-01-23T01:37:22.535Z,17.90
2023-01-23T01:40:34.407Z,18.08
2023-01-23T01:43:36.318Z,18.92
2023-01-23T01:46:38.467Z,20.35
2023-01-23T01:49:41.077Z,19.00
2023-01-23T01:52:44.119Z,15.68
2023-01-23T01:55:45.768Z,16.23
2023-01-23T01:58:51.088Z,16.92
2023-01-23T02:01:58.154Z,16.38
2023-01-23T02:05:04.009Z,13.73
2023-01-23T02:08:31.594Z,14.60
2023-01-23T02:11:34.148Z,17.30
2023-01-23T02:14:35.900Z,15.55
2023-01-23T02:17:38.183Z,14.85
2023-01-23T02:20:39.901Z,13.05
2023-01-23T02:23:50.916Z,12.93
2023-01-23T02:26:57.272Z,13.23
2023-01-23T02:30:00.084Z,13.82
2023-01-23T02:33:12.502Z,14.73
2023-01-23T02:36:14.274Z,15.35
2023-01-23T02:39:19.630Z,15.15
2023-01-23T02:42:26.292Z,15.88
2023-01-23T02:45:28.467Z,18.00
2023-01-23T02:48:30.059Z,15.52
2023-01-23T02:51:34.477Z,15.38
2023-01-23T02:54:36.651Z,16.65
2023-01-23T02:57:38.266Z,15.45
2023-01-23T03:00:39.830Z,15.98
2023-01-23T03:03:44.214Z,15.50
2023-01-23T03:06:45.707Z,17.65
2023-01-23T03:09:48.695Z,17.77
2023-01-23T03:12:50.191Z,16.55
2023-01-23T03:15:53.112Z,16.55
2023-01-23T03:18:55.236Z,16.73
2023-01-23T03:21:57.546Z,14.60
2023-01-23T03:24:59.065Z,13.27
2023-01-23T03:28:00.648Z,16.55
2023-01-23T03:31:02.216Z,14.50
2023-01-23T03:34:04.674Z,13.93
2023-01-23T03:37:09.089Z,14.32
2023-01-23T03:40:38.310Z,16.23
2023-01-23T03:43:40.728Z,15.60
2023-01-23T03:46:42.255Z,13.45
2023-01-23T03:49:43.973Z,14.38
2023-01-23T03:52:45.643Z,13.57
2023-01-23T03:55:48.154Z,11.63
2023-01-23T03:58:50.316Z,14.05
2023-01-23T04:01:54.092Z,12.73
2023-01-23T04:04:55.810Z,11.32
2023-01-23T04:07:57.341Z,11.20
2023-01-23T04:11:07.329Z,11.65
2023-01-23T04:14:09.149Z,8.25
2023-01-23T04:17:11.192Z,8.10
2023-01-23T04:20:13.112Z,7.93
2023-01-23T04:23:16.993Z,9.55
2023-01-23T04:26:18.532Z,10.02
2023-01-23T04:29:20.037Z,9.45
2023-01-23T04:32:22.062Z,9.70
2023-01-23T04:35:23.745Z,10.27
2023-01-23T04:38:28.644Z,8.05
2023-01-23T04:44:37.423Z,9.10
2023-01-23T04:48:05.090Z,9.15
2023-01-23T04:51:09.658Z,9.50
2023-01-23T04:54:12.188Z,9.35
2023-01-23T04:57:13.781Z,9.00
2023-01-23T05:00:16.301Z,9.40
2023-01-23T05:03:18.271Z,9.23
2023-01-23T05:06:21.709Z,8.88
2023-01-23T05:09:23.280Z,7.93
2023-01-23T05:12:27.162Z,8.45
2023-01-23T05:15:30.778Z,8.35
2023-01-23T05:18:32.570Z,9.32
2023-01-23T05:21:34.167Z,7.97
2023-01-23T05:24:36.240Z,8.32
2023-01-23T05:27:39.329Z,8.90
2023-01-23T05:30:41.209Z,8.88
2023-01-23T05:37:10.409Z,9.38
2023-01-23T05:40:13.845Z,9.93
2023-01-23T05:43:53.955Z,10.05
2023-01-23T05:47:12.839Z,10.18
2023-01-23T05:50:18.142Z,9.93
2023-01-23T05:53:19.876Z,10.13
2023-01-23T05:56:24.275Z,11.32
2023-01-23T05:59:44.701Z,11.00
2023-01-23T06:03:24.690Z,10.30
2023-01-23T06:06:46.525Z,11.02
2023-01-23T06:09:48.271Z,9.95
2023-01-23T06:12:49.793Z,10.48
2023-01-23T06:15:51.796Z,9.77
2023-01-23T06:18:53.681Z,11.85
2023-01-23T06:21:55.488Z,11.00
2023-01-23T06:24:57.208Z,8.50
2023-01-23T06:27:58.727Z,9.15
2023-01-23T06:31:04.119Z,10.27
2023-01-23T06:34:15.384Z,8.13
2023-01-23T06:37:27.317Z,8.85
2023-01-23T06:40:28.855Z,7.60
2023-01-23T06:43:50.386Z,8.10
2023-01-23T06:46:56.633Z,7.55
2023-01-23T06:50:01.907Z,6.70
2023-01-23T06:53:05.559Z,8.77
2023-01-23T06:56:08.336Z,7.35
2023-01-23T06:59:12.246Z,7.13
2023-01-23T07:02:15.275Z,7.38
2023-01-23T07:05:22.285Z,9.60
2023-01-23T07:08:23.936Z,6.78
2023-01-23T07:11:27.100Z,7.90
2023-01-23T07:14:31.345Z,7.68
2023-01-23T07:17:33.486Z,6.97
2023-01-23T07:20:35.594Z,6.85
2023-01-23T07:23:37.257Z,7.82
2023-01-23T07:26:38.796Z,7.68
2023-01-23T07:29:41.542Z,7.70
2023-01-23T07:32:43.604Z,6.05
2023-01-23T07:35:45.087Z,6.80
2023-01-23T07:38:46.624Z,7.28
2023-01-23T07:41:48.527Z,6.72
2023-01-23T07:44:50.135Z,6.38
2023-01-23T07:47:51.708Z,5.93
2023-01-23T07:50:53.426Z,7.78
2023-01-23T07:53:55.030Z,8.43
2023-01-23T07:56:56.597Z,6.07
2023-01-23T07:59:58.206Z,6.60
2023-01-23T08:02:59.871Z,6.80
2023-01-23T08:06:01.382Z,6.13
2023-01-23T08:09:02.952Z,6.43
2023-01-23T08:12:05.165Z,8.05
2023-01-23T08:15:07.467Z,5.85
2023-01-23T08:18:09.003Z,10.63
2023-01-23T08:21:11.294Z,7.68
2023-01-23T08:24:13.696Z,6.30
2023-01-23T08:27:15.316Z,8.20
2023-01-23T08:30:17.237Z,8.45
2023-01-23T08:33:19.836Z,7.00
2023-01-23T08:36:21.747Z,6.80
2023-01-23T08:39:24.515Z,9.50
2023-01-23T08:42:26.472Z,6.97
2023-01-23T08:45:28.171Z,6.82
2023-01-23T08:48:29.924Z,6.88
2023-01-23T08:51:31.574Z,9.93
2023-01-23T08:54:33.554Z,7.97
2023-01-23T08:57:35.057Z,11.18
2023-01-23T09:00:36.547Z,7.10
2023-01-23T09:03:38.756Z,7.10
2023-01-23T09:06:40.305Z,8.32
2023-01-23T09:09:41.867Z,10.07
2023-01-23T09:12:43.734Z,10.20
2023-01-23T09:15:46.784Z,8.82
2023-01-23T09:18:48.418Z,9.20
2023-01-23T09:21:53.736Z,8.60
2023-01-23T09:24:55.288Z,8.73
2023-01-23T09:27:57.089Z,9.60
2023-01-23T09:31:03.028Z,13.00
2023-01-23T09:34:04.785Z,9.05
2023-01-23T09:37:06.697Z,11.23
2023-01-23T09:40:16.908Z,10.10
2023-01-23T09:43:31.731Z,11.85
2023-01-23T09:46:59.129Z,11.55
2023-01-23T09:50:05.575Z,13.20
2023-01-23T09:53:20.673Z,15.48
2023-01-23T09:56:30.018Z,18.63
2023-01-23T09:59:50.231Z,12.88
2023-01-23T10:03:11.262Z,18.58
2023-01-23T10:06:23.783Z,19.08
2023-01-23T10:09:50.337Z,14.38
2023-01-23T10:13:07.896Z,17.98
2023-01-23T10:16:21.154Z,13.13
2023-01-23T10:19:59.918Z,16.65
2023-01-23T10:23:36.542Z,18.45
2023-01-23T10:26:43.596Z,12.55
2023-01-23T10:30:00.189Z,9.40
2023-01-23T10:33:11.765Z,11.57
2023-01-23T10:40:00.813Z,12.80
2023-01-23T10:43:02.849Z,20.55
2023-01-23T10:46:16.358Z,12.65
2023-01-23T10:49:47.697Z,11.80
2023-01-23T10:52:49.310Z,15.23
2023-01-23T10:55:53.425Z,14.25
2023-01-23T10:59:00.996Z,14.50
2023-01-23T11:02:02.725Z,11.13
2023-01-23T11:05:52.804Z,12.15
2023-01-23T11:09:01.124Z,24.38
2023-01-23T11:12:05.185Z,9.70
2023-01-23T11:15:22.369Z,12.80
2023-01-23T11:18:32.758Z,15.88
2023-01-23T11:21:35.668Z,13.15
2023-01-23T11:24:41.275Z,15.00
2023-01-23T11:27:57.464Z,13.27
2023-01-23T11:31:17.673Z,13.15
2023-01-23T11:34:23.645Z,16.85
2023-01-23T11:37:28.128Z,11.98
2023-01-23T11:40:29.613Z,12.27
2023-01-23T11:43:31.230Z,13.75
2023-01-23T11:46:57.441Z,12.00
2023-01-23T11:49:58.940Z,21.40
2023-01-23T11:53:12.635Z,13.88
2023-01-23T11:56:34.043Z,14.35
2023-01-23T11:59:46.496Z,25.40
2023-01-23T12:03:16.151Z,14.70
2023-01-23T12:06:25.964Z,15.18
2023-01-23T12:09:40.068Z,20.38
2023-01-23T12:12:59.597Z,11.95
2023-01-23T12:16:22.970Z,15.32
2023-01-23T12:19:52.407Z,14.57
2023-01-23T12:23:19.993Z,12.85
2023-01-23T12:26:22.989Z,12.65
2023-01-23T12:29:47.343Z,17.95
2023-01-23T12:33:19.980Z,16.48
2023-01-23T12:36:44.135Z,12.02
2023-01-23T12:40:09.828Z,26.35
2023-01-23T12:43:38.501Z,25.33
2023-01-23T12:46:45.785Z,14.82
2023-01-23T12:50:13.618Z,20.25
2023-01-23T12:53:22.969Z,17.52
2023-01-23T12:56:31.337Z,12.48
2023-01-23T12:59:42.260Z,13.10
2023-01-23T13:02:54.380Z,13.07
2023-01-23T13:05:58.818Z,13.93
2023-01-23T13:09:24.911Z,13.10
2023-01-23T13:12:28.271Z,13.13
2023-01-23T13:15:40.246Z,38.13
2023-01-23T13:19:12.137Z,14.90
2023-01-23T13:22:29.060Z,14.93
2023-01-23T13:25:32.183Z,17.15
2023-01-23T13:28:46.580Z,13.82
2023-01-23T13:34:52.384Z,15.40
2023-01-23T13:37:54.136Z,14.32
2023-01-23T13:41:05.025Z,14.43
2023-01-23T13:44:40.342Z,39.95
2023-01-23T14:22:46.703Z,16.65
2023-01-23T14:25:48.530Z,19.73
2023-01-23T14:29:00.331Z,18.33
2023-01-23T14:32:02.332Z,15.25
2023-01-23T14:35:16.609Z,17.65
2023-01-23T14:38:31.680Z,17.00
2023-01-23T14:41:41.391Z,16.33
2023-01-23T14:44:46.710Z,20.15
2023-01-23T14:47:59.634Z,14.45
2023-01-23T14:51:22.584Z,16.98
2023-01-23T14:54:26.381Z,16.80
2023-01-23T14:57:31.284Z,15.10
2023-01-23T15:00:35.701Z,14.63
2023-01-23T15:03:45.374Z,20.60
2023-01-23T15:06:53.687Z,21.00
2023-01-23T15:09:55.225Z,15.23
2023-01-23T15:13:03.267Z,30.63
2023-01-23T15:16:11.242Z,25.05
2023-01-23T15:19:24.660Z,23.27
2023-01-23T15:22:29.148Z,16.08
2023-01-23T15:25:33.587Z,32.80
2023-01-23T15:28:43.033Z,30.58
2023-01-23T15:31:52.694Z,21.20
2023-01-23T15:34:57.532Z,19.38
2023-01-23T15:38:04.771Z,19.52
2023-01-23T15:41:10.672Z,21.92
2023-01-23T15:44:17.962Z,24.73
2023-01-23T15:47:19.682Z,23.48
2023-01-23T15:50:21.204Z,28.40
2023-01-23T15:53:22.787Z,34.75
2023-01-23T15:56:34.820Z,21.00
2023-01-23T15:59:36.866Z,22.33
2023-01-23T16:02:47.127Z,19.90
2023-01-23T16:05:56.545Z,21.45
2023-01-23T16:09:05.289Z,20.95
2023-01-23T16:12:15.079Z,20.17
2023-01-23T16:15:25.716Z,18.58
2023-01-23T16:18:27.480Z,18.08
2023-01-23T16:21:30.341Z,19.05
2023-01-23T16:24:36.611Z,19.33
2023-01-23T16:27:38.469Z,14.60
2023-01-23T16:30:40.011Z,19.58
2023-01-23T16:33:41.754Z,17.00
2023-01-23T16:36:43.584Z,18.17
2023-01-23T16:39:46.693Z,16.52
2023-01-23T16:42:50.203Z,16.40
2023-01-23T16:45:56.105Z,15.85
2023-01-23T16:48:57.835Z,19.67
2023-01-23T16:52:01.533Z,17.75
2023-01-23T16:55:11.984Z,16.77
2023-01-23T16:58:18.313Z,19.42
2023-01-23T17:01:23.479Z,20.90
2023-01-23T17:04:25.298Z,19.45
2023-01-23T17:07:26.833Z,16.90
2023-01-23T17:10:45.536Z,21.42
2023-01-23T17:13:54.772Z,21.55
2023-01-23T17:17:06.014Z,17.80
2023-01-23T17:20:12.370Z,20.23
2023-01-23T17:23:14.542Z,19.88
2023-01-23T17:26:18.315Z,17.13
2023-01-23T17:29:20.102Z,14.68
2023-01-23T17:32:42.834Z,18.60
2023-01-23T17:35:44.995Z,21.98
2023-01-23T17:38:46.665Z,17.42
2023-01-23T17:41:48.298Z,15.43
2023-01-23T17:44:50.563Z,19.88
2023-01-23T17:47:54.858Z,16.05
2023-01-23T17:53:58.883Z,15.98
2023-01-23T17:57:00.418Z,16.52
2023-01-23T18:00:03.356Z,16.58
2023-01-23T18:03:13.899Z,17.50
2023-01-23T18:06:15.437Z,15.85
2023-01-23T18:09:18.966Z,14.85
2023-01-23T18:12:35.222Z,14.38
2023-01-23T18:15:57.302Z,15.40
2023-01-23T18:19:01.243Z,17.02
2023-01-23T18:22:03.356Z,18.02
2023-01-23T18:25:05.342Z,15.88
2023-01-23T18:28:19.366Z,16.98
2023-01-23T18:31:31.275Z,18.42
2023-01-23T18:34:43.667Z,18.60
2023-01-23T18:37:50.423Z,15.73
2023-01-23T18:41:14.708Z,15.75
2023-01-23T18:44:23.614Z,14.38
2023-01-23T18:47:25.740Z,17.65
2023-01-23T18:50:27.575Z,15.98
2023-01-23T18:53:41.891Z,17.33
2023-01-23T18:57:15.178Z,16.27
2023-01-23T19:00:24.595Z,16.10
2023-01-23T19:03:38.812Z,13.55
2023-01-23T19:06:41.708Z,16.02
2023-01-23T19:09:46.518Z,15.60
2023-01-23T19:12:48.148Z,16.48
2023-01-23T19:16:14.330Z,16.45
2023-01-23T19:19:34.693Z,14.32
2023-01-23T19:23:02.780Z,15.95
2023-01-23T19:26:04.588Z,17.00
2023-01-23T19:29:20.326Z,12.38
2023-01-23T19:32:23.142Z,15.93
2023-01-23T19:35:24.750Z,17.63
2023-01-23T19:38:26.316Z,19.15
2023-01-23T19:41:42.958Z,14.93
2023-01-23T19:44:44.530Z,15.32
2023-01-23T19:47:49.437Z,17.75
2023-01-23T19:50:50.960Z,18.42
2023-01-23T19:53:54.276Z,16.42
2023-01-23T19:56:55.848Z,17.63
2023-01-23T19:59:57.538Z,14.77
2023-01-23T20:03:00.212Z,17.55
2023-01-23T20:06:02.058Z,15.43
2023-01-23T20:09:03.588Z,13.15
2023-01-23T20:12:05.418Z,16.05
2023-01-23T20:15:07.927Z,14.95
2023-01-23T20:18:11.025Z,17.13
2023-01-23T20:21:20.388Z,13.82
2023-01-23T20:24:22.339Z,16.42
2023-01-23T20:27:24.096Z,15.73
2023-01-23T20:30:25.766Z,16.08
2023-01-23T20:33:27.378Z,20.10
2023-01-23T20:36:28.990Z,23.00
2023-01-23T20:39:34.210Z,15.65
2023-01-23T20:42:35.978Z,14.02
2023-01-23T20:45:45.494Z,17.33
2023-01-23T20:48:47.198Z,17.48
2023-01-23T20:51:49.315Z,13.30
2023-01-23T20:54:50.909Z,16.05
2023-01-23T20:58:11.195Z,16.95
2023-01-23T21:01:13.888Z,16.35
2023-01-23T21:04:15.495Z,14.77
2023-01-23T21:07:17.579Z,17.90
2023-01-23T21:10:19.281Z,17.88
2023-01-23T21:13:21.203Z,15.88
2023-01-23T21:16:22.733Z,18.55
2023-01-23T21:19:24.347Z,15.95
2023-01-23T21:22:25.836Z,14.98
2023-01-23T21:25:27.463Z,16.65
2023-01-23T21:28:31.308Z,16.25
2023-01-23T21:31:35.582Z,18.35
2023-01-23T21:34:37.398Z,15.70
2023-01-23T21:37:40.096Z,16.73
2023-01-23T21:40:41.685Z,14.98
2023-01-23T21:43:43.354Z,15.23
2023-01-23T21:46:47.030Z,15.23
2023-01-23T21:49:49.570Z,15.05
2023-01-23T21:52:51.177Z,16.02
2023-01-23T21:55:52.811Z,15.23
2023-01-23T21:58:55.295Z,16.23
2023-01-23T22:01:56.836Z,15.55
2023-01-23T22:04:58.457Z,14.18
2023-01-23T22:08:00.123Z,18.90
2023-01-23T22:11:02.051Z,17.02
2023-01-23T22:14:04.415Z,18.98
2023-01-23T22:17:07.982Z,17.40
2023-01-23T22:20:10.483Z,16.77
2023-01-23T22:23:12.078Z,17.45
2023-01-23T22:26:13.675Z,16.85
2023-01-23T22:29:15.296Z,16.33
2023-01-23T22:32:16.957Z,15.50
2023-01-23T22:35:19.224Z,15.55
2023-01-23T22:38:21.061Z,15.00
2023-01-23T22:41:23.493Z,16.85
2023-01-23T22:44:26.196Z,15.98
2023-01-23T22:47:27.813Z,16.42
2023-01-23T22:50:29.729Z,16.05
2023-01-23T22:53:31.512Z,16.35
2023-01-23T22:56:33.227Z,16.00
2023-01-23T22:59:34.850Z,13.55
2023-01-23T23:02:37.454Z,13.98
2023-01-23T23:05:39.013Z,15.00
2023-01-23T23:08:41.504Z,14.55
2023-01-23T23:11:44.099Z,14.38
2023-01-23T23:14:45.626Z,14.43
2023-01-23T23:17:47.271Z,13.63
2023-01-23T23:20:48.932Z,15.10
2023-01-23T23:23:51.158Z,16.80
2023-01-23T23:26:52.828Z,13.65
2023-01-23T23:29:54.378Z,16.13
2023-01-23T23:32:55.926Z,13.85
2023-01-23T23:35:57.491Z,15.23
2023-01-23T23:38:59.213Z,13.93
2023-01-23T23:42:00.810Z,13.73
2023-01-23T23:45:02.355Z,14.93
2023-01-23T23:48:03.929Z,13.65
2023-01-23T23:51:08.278Z,13.13
2023-01-23T23:54:09.804Z,19.13
2023-01-23T23:57:11.372Z,12.88
